Aruba, Aruba

06:29 PM AST del 30 Agosto 2015 (GMT -0400)
Oranjestad-Reina Beatrix International | | Change Station
CLOSE
Current Station
Aeroporto
Location: Aruba,
Altitudine: 59 ft
Stazioni meteo nelle vicinanze

Alt. 59 ft 12.50 °N, 70.02 °W | Updated 29 minutes ago

Partly Cloudy
Parzialmente nuvoloso
88 °F
Sembra 100 °F
N
21
Vento Variabile Vento da ENE

Oggi
Massima -- | Minima -- °F
--% Possibilità di precip.
Ieri
Massima -- | Minima -- °F
Precip. -- in
6:29 AM 6:52 PM
Luna piena, 98% visible
Pressione 29.83 in
Visibilità 6.2 miglia
Nuvole Alcuni 2300 ft
Indice di calore 100 °F
Punto di rugiada 77 °F
Umidità 70%
Piovosità 0.00 in
Spessore del manto nevoso Non disponibile.
Raggi UV 1 fuori da 12
Polline Non disponibile.
Qualità dell'aria Non disponibile.
Flu Activity Non disponibile.
METAR TNCA 302200Z 07018KT 9999 FEW023 31/25 Q1010 A2983 NOSIG
Pressione 29.83 in
Visibilità 6.2 miglia
Nuvole Alcuni 2300 ft
Indice di calore 100 °F
Punto di rugiada 77 °F
Umidità 70%
Piovosità 0.00 in
Spessore del manto nevoso Non disponibile.
Raggi UV 1 fuori da 12
Polline Non disponibile.
Qualità dell'aria Non disponibile.
Flu Activity Non disponibile.
METAR TNCA 302200Z 07018KT 9999 FEW023 31/25 Q1010 A2983 NOSIG

10-Day Weather Forecast

×

Almanac

Astronomia

Aug. 30, 2015 Alba Tramonto
Ora attuale
Crepuscolo civile
Crepuscolo nautico
Crepuscolo astronomico
Luna
Estensione della luce visibile
Lunghezza del giorno
Tomorrow will be .
, % of the Moon is Illuminated

Gli estremi di oggi

Massime Regione Minime Regione

Community

WunderPhotos

Upload Photos

1,851,067 foto caricate!

WunderBlogs® & News

Nearby

Qualità dell'aria

  Qualità dell'aria Indice AQ Inquinante
Not available.

Profondità neve

Stazione Profondità Altitudine

Attività sismica

Città  Distanza Mag. Data & Ora
Minimo Magnitudo Mostrato è 2.5.

Temperature delle acque costiere

Località Temperatura

Stations

Stazioni meteo nelle vicinanze

Ubicazione della stazione Temp. Raffreddamento del vento Punto di rugiada Umidità Vento Precip. Alt. Aggiornato Tipo